Flight Track Log - Related Links

Times and Time Zones

All times are in EST time to prevent confusion due to time zone crossing. See the EJA922 flight status page for this flight to view local times or setup timezone preferences in your user account.

Time Position Orientation Groundspeed Altitude Reporting Facility
EST Latitude Longitude Course Direction KTS MPH feet Rate Location/Type
Wed 09:57:48 AM 45.0622 -83.5611 174° South 177 204 1,700  Level Minneapolis Center
Wed 09:58:06 AM 45.0497 -83.5592 174° South 179 206 2,700 2,538 Climbing Minneapolis Center
Wed 09:59:06 AM 44.9958 -83.5442 169° South 198 228 5,000 2,190 Climbing Minneapolis Center
Wed 09:59:09 AM 44.9944 -83.5436 164° South 220 253 5,000  Level Minneapolis Center
Wed 10:00:07 AM 44.9414 -83.5947 214° Southwest 239 275 5,000 50 Level Minneapolis Center
Wed 10:01:09 AM 44.9089 -83.6703 239° Southwest 231 266 5,100 48 Climbing Minneapolis Center
Wed 10:02:11 AM 44.8736 -83.7508 238° Southwest 241 277 5,100  Level Minneapolis Center
Wed 10:03:12 AM 44.8314 -83.8447 238° Southwest 261 300 5,100  Level Minneapolis Center
Wed 10:04:14 AM 44.7961 -83.9253 238° Southwest 249 287 5,100  Level Minneapolis Center
Wed 10:05:16 AM 44.7603 -84.0094 239° Southwest 238 274 5,100  Level Minneapolis Center
Wed 10:06:17 AM 44.7264 -84.0889 239° Southwest 239 275 5,100  Level Minneapolis Center
Wed 10:07:19 AM 44.6892 -84.1764 239° Southwest 243 280 5,100 97 Level Minneapolis Center
Wed 10:08:21 AM 44.6533 -84.2556 238° Southwest 244 281 5,300 1,902 Climbing Minneapolis Center
Wed 10:09:22 AM 44.5800 -84.2478 176° South 254 292 9,000 2,976 Climbing Minneapolis Center
Wed 10:10:24 AM 44.5064 -84.2186 164° South 274 315 11,400 2,371 Climbing Minneapolis Center
Wed 10:11:26 AM 44.4072 -84.1783 164° South 343 395 13,900 2,439 Climbing Minneapolis Center
Wed 10:12:27 AM 44.3092 -84.1394 164° South 365 420 16,400 2,293 Climbing Minneapolis Center
Wed 10:13:29 AM 44.1981 -84.0944 164° South 386 444 18,600 2,226 Climbing Minneapolis Center
Wed 10:14:31 AM 44.0939 -84.0536 164° South 393 452 21,000 2,390 Climbing Minneapolis Center
Wed 10:15:32 AM 43.9814 -84.0103 165° South 403 464 23,500 2,341 Climbing Minneapolis Center
Wed 10:16:34 AM 43.8742 -83.9647 163° South 403 464 25,800 2,081 Climbing Minneapolis Center
Wed 10:17:36 AM 43.7597 -83.9186 164° South 413 475 27,800 1,951 Climbing Minneapolis Center
Wed 10:18:37 AM 43.6400 -83.8692 163° South 429 494 29,800 1,805 Climbing Minneapolis Center
Wed 10:19:39 AM 43.5156 -83.8197 164° South 444 511 31,500 1,659 Climbing Minneapolis Center
Wed 10:20:40 AM 43.3636 -83.7661 166° South 482 555 33,200 1,548 Climbing Cleveland Center
Wed 10:21:43 AM 43.2303 -83.7306 169° South 490 564 34,700 1,440 Climbing Cleveland Center
Wed 10:22:45 AM 43.0956 -83.7247 178° South 485 558 36,200 1,113 Climbing Cleveland Center
Wed 10:23:47 AM 42.9606 -83.7183 178° South 486 559 37,000 1,065 Climbing Cleveland Center
Wed 10:24:49 AM 42.8253 -83.7092 177° South 489 563 38,400 1,548 Climbing Cleveland Center
Wed 10:25:51 AM 42.6692 -83.6483 164° South 488 562 40,200 1,258 Climbing Cleveland Center
Wed 10:26:53 AM 42.5419 -83.5936 162° South 482 555 41,000 387 Climbing Cleveland Center
Wed 10:27:55 AM 42.4114 -83.5358 162° South 493 567 41,000  Level Cleveland Center
Wed 10:28:57 AM 42.2739 -83.4758 162° South 508 585 41,000  Level Cleveland Center
Wed 10:29:59 AM 42.1367 -83.4172 162° South 512 589 41,000  Level Cleveland Center
Wed 10:31:01 AM 41.9978 -83.3581 162° South 517 595 41,000  Level Cleveland Center
Wed 10:32:03 AM 41.8519 -83.2947 162° South 515 593 41,000  Level Cleveland Center
Wed 10:33:05 AM 41.7142 -83.2364 162° South 519 597 41,000  Level Cleveland Center
Wed 10:34:07 AM 41.5617 -83.1706 162° South 518 596 41,000  Level Cleveland Center
Wed 10:35:09 AM 41.4242 -83.1136 163° South 515 593 41,000  Level Cleveland Center
Wed 10:36:12 AM 41.2861 -83.0558 163° South 516 594 41,000  Level Cleveland Center
Wed 10:37:14 AM 41.1492 -82.9986 163° South 514 592 41,000  Level Cleveland Center
Wed 10:38:16 AM 40.9897 -82.9314 162° South 514 592 41,000  Level Cleveland Center
Wed 10:39:18 AM 40.8525 -82.8761 163° South 514 592 41,000  Level Cleveland Center
Wed 10:40:20 AM 40.7144 -82.8178 162° South 515 593 41,000  Level Cleveland Center
Wed 10:41:22 AM 40.5772 -82.7619 163° South 516 594 41,000  Level Cleveland Center
Wed 10:42:24 AM 40.4386 -82.7050 163° South 519 597 41,000  Level Cleveland Center
Wed 10:43:26 AM 40.3022 -82.6494 163° South 515 593 41,000  Level Cleveland Center
Wed 10:44:28 AM 40.1644 -82.5947 163° South 514 592 41,000  Level Cleveland Center
Wed 10:45:28 AM 40.0222 -82.5711 173° South 511 588 41,000  Level Indianapolis Center
Wed 10:46:30 AM 39.8528 -82.5467 174° South 508 585 41,000  Level Indianapolis Center
Wed 10:47:32 AM 39.7097 -82.5258 174° South 512 589 41,000  Level Indianapolis Center
Wed 10:48:34 AM 39.5681 -82.5072 174° South 511 588 41,000  Level Indianapolis Center
Wed 10:49:36 AM 39.4267 -82.4872 174° South 509 586 41,000  Level Indianapolis Center
Wed 10:50:38 AM 39.2944 -82.4703 174° South 510 587 41,000  Level Indianapolis Center
Wed 10:51:40 AM 39.1264 -82.4458 174° South 508 585 41,000  Level Indianapolis Center
Wed 10:52:42 AM 38.9844 -82.4278 174° South 510 587 41,000  Level Indianapolis Center
Wed 10:53:44 AM 38.8422 -82.4086 174° South 513 590 41,000  Level Indianapolis Center
Wed 10:54:46 AM 38.7003 -82.3908 174° South 514 592 41,000  Level Indianapolis Center
Wed 10:55:48 AM 38.5600 -82.3719 174° South 510 587 41,000  Level Indianapolis Center
Wed 10:56:50 AM 38.4206 -82.3533 174° South 506 582 41,000  Level Indianapolis Center
Wed 10:57:51 AM 38.2519 -82.3314 174° South 506 582 41,000  Level Indianapolis Center
Wed 10:58:53 AM 38.1064 -82.3117 174° South 506 582 41,000  Level Indianapolis Center
Wed 10:59:55 AM 37.9650 -82.2950 175° South 508 585 41,000  Level Indianapolis Center
Wed 11:00:57 AM 37.8242 -82.2764 174° South 508 585 41,000 290 Level Indianapolis Center
Wed 11:01:59 AM 37.6836 -82.2558 173° South 506 582 41,600 774 Climbing Indianapolis Center
Wed 11:03:01 AM 37.5469 -82.2403 175° South 492 566 42,600 677 Climbing Indianapolis Center
Wed 11:04:03 AM 37.4103 -82.2233 174° South 489 563 43,000 194 Climbing Indianapolis Center
Wed 11:05:05 AM 37.2433 -82.2011 174° South 510 587 43,000  Level Indianapolis Center
Wed 11:06:07 AM 37.0986 -82.1828 174° South 516 594 43,000  Level Indianapolis Center
Wed 11:07:09 AM 36.9536 -82.1650 174° South 519 597 43,000  Level Indianapolis Center
Wed 11:08:10 AM 36.8081 -82.1469 174° South 521 600 43,000  Level Indianapolis Center
Wed 11:09:12 AM 36.6644 -82.1278 174° South 516 594 43,000  Level Indianapolis Center
Wed 11:10:14 AM 36.5189 -82.1097 174° South 519 597 43,000  Level Indianapolis Center
Wed 11:11:16 AM 36.3983 -82.0953 174° South 519 597 43,000  Level Indianapolis Center
Wed 11:12:18 AM 36.2069 -82.0703 174° South 517 595 43,000  Level Indianapolis Center
Wed 11:13:20 AM 36.0619 -82.0519 174° South 520 598 43,000  Level Indianapolis Center
Wed 11:14:35 AM 35.8939 -82.0342 175° South 519 597 43,000  Level Atlanta Center
Wed 11:15:35 AM 35.7539 -82.0172 174° South 519 597 43,000  Level Atlanta Center
Wed 11:16:35 AM 35.6094 -81.9978 174° South 519 597 43,000  Level Atlanta Center
Wed 11:17:35 AM 35.4694 -81.9808 174° South 519 597 43,000  Level Atlanta Center
Wed 11:18:35 AM 35.3314 -81.9664 175° South 519 597 43,000  Level Atlanta Center
Wed 11:19:35 AM 35.1894 -81.9625 179° South 513 590 43,000  Level Atlanta Center
Wed 11:20:35 AM 35.0517 -81.9608 179° South 508 585 43,000  Level Atlanta Center
Wed 11:21:36 AM 34.9142 -81.9617 180° South 502 578 43,000  Level Atlanta Center
Wed 11:22:35 AM 34.7722 -81.9603 180° South 502 578 43,000  Level Atlanta Center
Wed 11:23:35 AM 34.6322 -81.9586 179° South 502 578 43,000  Level Atlanta Center
Wed 11:24:35 AM 34.4947 -81.9594 180° South 502 578 43,000  Level Atlanta Center
Wed 11:25:35 AM 34.3547 -81.9603 180° South 497 572 43,000  Level Atlanta Center
Wed 11:26:35 AM 34.2169 -81.9589 180° South 497 572 43,000  Level Atlanta Center
Wed 11:27:35 AM 34.0792 -81.9572 179° South 497 572 43,000  Level Atlanta Center
Wed 11:28:35 AM 33.9394 -81.9606 181° South 497 572 43,000  Level Atlanta Center
Wed 11:29:35 AM 33.8017 -81.9589 179° South 497 572 43,000  Level Atlanta Center
Wed 11:30:35 AM 33.6617 -81.9572 179° South 497 572 43,000  Level Atlanta Center
Wed 11:31:35 AM 33.5242 -81.9606 181° South 497 572 43,000  Level Atlanta Center
Wed 11:32:35 AM 33.3822 -81.9592 180° South 497 572 43,000  Level Atlanta Center
Wed 11:33:35 AM 33.2464 -81.9622 181° South 497 572 43,000  Level Atlanta Center
Wed 11:35:17 AM 32.9939 -81.9614 180° South 496 571 43,000  Level Jacksonville Center
Wed 11:36:17 AM 32.8561 -81.9653 181° South 496 571 43,000  Level Jacksonville Center
Wed 11:37:17 AM 32.7183 -81.9617 179° South 496 571 43,000  Level Jacksonville Center
Wed 11:38:17 AM 32.5850 -81.9681 182° South 485 558 43,000  Level Jacksonville Center
Wed 11:39:17 AM 32.4575 -81.9669 180° South 495 570 43,000  Level Jacksonville Center
Wed 11:40:17 AM 32.3072 -81.9683 180° South 502 578 43,000  Level Jacksonville Center
Wed 11:41:17 AM 32.1672 -81.9697 180° South 494 568 43,000  Level Jacksonville Center
Wed 11:42:17 AM 32.0419 -81.9686 180° South 494 568 43,000  Level Jacksonville Center
Wed 11:43:17 AM 31.8939 -81.9775 183° South 494 568 43,000  Level Jacksonville Center
Wed 11:44:17 AM 31.7708 -81.9883 184° South 500 575 43,000  Level Jacksonville Center
Wed 11:45:17 AM 31.6206 -82.0019 184° South 495 570 43,000  Level Jacksonville Center
Wed 11:46:17 AM 31.4892 -82.0131 184° South 495 570 43,000  Level Jacksonville Center
Wed 11:47:17 AM 31.3536 -82.0264 185° South 496 571 43,000  Level Jacksonville Center
Wed 11:48:17 AM 31.2178 -82.0400 185° South 496 571 43,000  Level Jacksonville Center
Wed 11:49:17 AM 31.0864 -82.0533 185° South 490 564 43,000  Level Jacksonville Center
Wed 11:50:17 AM 30.9508 -82.0667 185° South 485 558 43,000  Level Jacksonville Center
Wed 11:51:17 AM 30.8172 -82.0775 184° South 485 558 43,000  Level Jacksonville Center
Wed 11:52:17 AM 30.6794 -82.0906 185° South 485 558 43,000  Level Jacksonville Center
Wed 11:53:17 AM 30.5458 -82.1014 184° South 485 558 43,000  Level Jacksonville Center
Wed 11:54:17 AM 30.4250 -82.1072 182° South 480 552 43,000  Level Jacksonville Center
Wed 11:55:17 AM 30.2892 -82.1203 185° South 480 552 43,000  Level Jacksonville Center
Wed 11:56:17 AM 30.1514 -82.1239 181° South 485 558 43,000  Level Jacksonville Center
Wed 11:57:17 AM 30.0114 -82.1011 172° South 494 568 43,000  Level Jacksonville Center
Wed 11:58:17 AM 29.8756 -82.0733 170° South 499 574 43,000 -850 Level Jacksonville Center
Wed 11:59:17 AM 29.7375 -82.0386 168° South 499 574 41,300 -2,100 Descending Jacksonville Center
Wed 12:00:17 PM 29.6058 -82.0183 172° South 504 580 38,800 -2,550 Descending Jacksonville Center
Wed 12:01:17 PM 29.4678 -81.9886 169° South 504 580 36,200 -1,950 Descending Jacksonville Center
Wed 12:02:17 PM 29.3300 -81.9636 171° South 504 580 34,900 -600 Descending Jacksonville Center
Wed 12:03:17 PM 29.1897 -81.9317 169° South 509 586 35,000 50 Climbing Jacksonville Center
Wed 12:04:17 PM 29.0478 -81.9044 170° South 509 586 35,000 -1,013 Level Jacksonville Center
Wed 12:05:51 PM 28.8225 -81.8642 171° South 520 598 32,400 -2,065 Descending Miami Center
Wed 12:06:51 PM 28.6817 -81.8342 169° South 520 598 29,700 -2,600 Descending Miami Center
Wed 12:07:51 PM 28.5533 -81.8072 170° South 506 582 27,200 -1,500 Descending Miami Center
Wed 12:08:51 PM 28.4394 -81.7786 168° South 463 533 26,700 -1,000 Descending Miami Center
Wed 12:09:51 PM 28.3303 -81.7456 165° South 428 493 25,200 -1,350 Descending Miami Center
Wed 12:10:51 PM 28.2186 -81.7125 165° South 421 484 24,000 -850 Descending Miami Center
Wed 12:11:51 PM 28.1111 -81.6819 166° South 410 472 23,500 -1,050 Descending Miami Center
Wed 12:12:51 PM 27.9989 -81.6700 175° South 410 472 21,900 -1,500 Descending Miami Center
Wed 12:13:51 PM 27.8869 -81.6514 172° South 405 466 20,500 -1,400 Descending Miami Center
Wed 12:14:51 PM 27.7728 -81.6300 171° South 411 473 19,100 -1,450 Descending Miami Center
Wed 12:15:51 PM 27.6503 -81.6061 170° South 438 504 17,600 -1,050 Descending Miami Center
Wed 12:16:51 PM 27.5261 -81.5822 170° South 445 512 17,000 -1,000 Descending Miami Center
Wed 12:17:51 PM 27.4119 -81.5614 171° South 444 511 15,600 -1,550 Descending Miami Center
Wed 12:18:51 PM 27.2978 -81.5381 170° South 427 491 13,900 -1,650 Descending Miami Center
Wed 12:19:51 PM 27.1836 -81.5169 171° South 427 491 12,300 -1,600 Descending Miami Center
Wed 12:20:51 PM 27.0717 -81.4939 170° South 422 486 10,700 -1,150 Descending Miami Center
Wed 12:21:51 PM 26.9767 -81.4644 165° South 408 470 10,000 -350 Descending Miami Center
Wed 12:22:51 PM 26.8758 -81.4161 157° South 397 457 10,000 -400 Level Miami Center
Wed 12:23:51 PM 26.7956 -81.3806 158° South 352 405 9,200 -1,000 Descending Miami Center
Wed 12:24:51 PM 26.7158 -81.3936 188° South 289 333 8,000 -600 Descending Miami Center
Wed 12:25:51 PM 26.6383 -81.3978 183° South 289 333 8,000  Level Miami Center
Wed 12:26:51 PM 26.5589 -81.4039 184° South 289 333 8,000  Level Miami Center
Wed 12:27:51 PM 26.4747 -81.4239 192° South 294 338 8,000  Level Miami Center
Wed 12:28:51 PM 26.3986 -81.4511 198° South 289 333 8,000  Level Miami Center
Wed 12:30:00 PM 26.2713 -81.5264 233° Southwest  Level FlightAware Approximate
Wed 12:37:00 PM 26.1500 -81.7667 246° West  Level FlightAware Approximate
Wed 12:38:00 PM 26.1524 -81.7756 246° West  Level Estimated
Wed 12:39:00 PM 26.1524 -81.7756 246° West  Level Estimated
Wed 12:40:00 PM 26.1524 -81.7756 246° West  Level Estimated
Wed 12:41:00 PM 26.1524 -81.7756 246° West  Level Estimated
Wed 12:42:00 PM 26.1524 -81.7756 246° West  Level Estimated
Wed 12:43:00 PM 26.1524 -81.7756 246° West  Level Estimated
Wed 12:44:00 PM 26.1524 -81.7756 246° West  Level Estimated
Wed 12:45:00 PM 26.1524 -81.7756 246° West  Level Estimated
Wed 12:46:00 PM 26.1524 -81.7756 246° West  Level Estimated

Login

Don't have an account? Register now (free) for customized features, flight alerts, and more!